createdAt,value
2024-02-08T00:00:48.102Z,9.10
2024-02-08T00:03:41.951Z,9.90
2024-02-08T00:06:15.314Z,10.40
2024-02-08T00:08:55.634Z,8.90
2024-02-08T00:11:30.097Z,9.30
2024-02-08T00:14:04.373Z,9.10
2024-02-08T00:16:38.673Z,8.60
2024-02-08T00:19:12.863Z,8.00
2024-02-08T00:21:47.154Z,9.60
2024-02-08T00:24:21.894Z,8.40
2024-02-08T00:26:55.298Z,8.80
2024-02-08T00:29:29.707Z,8.80
2024-02-08T00:32:03.630Z,9.30
2024-02-08T00:34:40.271Z,8.00
2024-02-08T00:37:14.706Z,7.90
2024-02-08T00:39:50.930Z,7.90
2024-02-08T00:42:24.153Z,7.40
2024-02-08T00:44:58.815Z,7.60
2024-02-08T00:47:32.950Z,7.30
2024-02-08T00:50:07.359Z,7.90
2024-02-08T00:52:42.856Z,8.10
2024-02-08T00:55:17.966Z,8.50
2024-02-08T00:57:51.529Z,8.30
2024-02-08T01:00:25.230Z,7.60
2024-02-08T01:03:00.640Z,7.20
2024-02-08T01:05:34.307Z,8.60
2024-02-08T01:08:09.950Z,9.00
2024-02-08T01:10:43.478Z,10.10
2024-02-08T01:13:20.123Z,10.40
2024-02-08T01:15:55.524Z,7.60
2024-02-08T01:18:29.581Z,7.90
2024-02-08T01:21:04.134Z,10.00
2024-02-08T01:23:37.954Z,8.50
2024-02-08T01:26:11.462Z,7.40
2024-02-08T01:28:45.456Z,8.40
2024-02-08T01:31:19.139Z,8.90
2024-02-08T01:33:53.161Z,8.60
2024-02-08T01:36:26.516Z,9.80
2024-02-08T01:39:00.809Z,11.80
2024-02-08T01:41:36.354Z,13.80
2024-02-08T01:44:10.134Z,11.20
2024-02-08T01:46:43.842Z,13.10
2024-02-08T01:49:20.224Z,34.30
2024-02-08T01:52:02.307Z,17.80
2024-02-08T01:54:37.814Z,10.30
2024-02-08T01:57:12.995Z,8.60
2024-02-08T01:59:55.029Z,8.50
2024-02-08T02:02:32.017Z,8.50
2024-02-08T02:05:06.169Z,9.40
2024-02-08T02:07:40.082Z,9.00
2024-02-08T02:10:14.518Z,8.60
2024-02-08T02:12:49.433Z,8.70
2024-02-08T02:15:23.092Z,8.90
2024-02-08T02:17:57.556Z,8.70
2024-02-08T02:20:32.582Z,8.80
2024-02-08T02:23:11.226Z,8.00
2024-02-08T02:25:44.838Z,7.70
2024-02-08T02:28:19.453Z,7.20
2024-02-08T02:30:53.111Z,6.70
2024-02-08T02:33:28.254Z,7.30
2024-02-08T02:36:02.354Z,5.90
2024-02-08T02:38:36.874Z,7.40
2024-02-08T02:41:10.525Z,6.90
2024-02-08T02:43:46.522Z,6.90
2024-02-08T02:46:24.189Z,8.50
2024-02-08T02:48:57.648Z,8.30
2024-02-08T02:51:32.441Z,7.40
2024-02-08T02:54:06.811Z,7.00
2024-02-08T02:56:40.258Z,6.60
2024-02-08T02:59:18.066Z,7.40
2024-02-08T03:01:51.724Z,9.10
2024-02-08T03:04:25.211Z,8.20
2024-02-08T03:06:59.220Z,7.80
2024-02-08T03:09:33.268Z,7.70
2024-02-08T03:12:11.584Z,8.40
2024-02-08T03:14:59.314Z,9.60
2024-02-08T03:20:13.204Z,8.90
2024-02-08T03:22:47.176Z,9.80
2024-02-08T03:25:23.561Z,13.40
2024-02-08T03:27:57.817Z,12.80
2024-02-08T03:30:33.752Z,11.50
2024-02-08T03:33:17.747Z,10.80
2024-02-08T03:35:55.796Z,11.10
2024-02-08T03:38:29.015Z,9.90
2024-02-08T03:41:02.393Z,9.40
2024-02-08T03:43:36.034Z,10.30
2024-02-08T03:46:09.783Z,11.20
2024-02-08T03:48:48.064Z,11.20
2024-02-08T03:51:24.553Z,11.30
2024-02-08T03:54:02.180Z,11.80
2024-02-08T03:56:38.769Z,9.50
2024-02-08T03:59:14.162Z,8.70
2024-02-08T04:01:54.796Z,8.60
2024-02-08T04:04:30.792Z,9.80
2024-02-08T04:07:16.627Z,8.40
2024-02-08T04:10:12.376Z,8.90
2024-02-08T04:13:03.205Z,8.80
2024-02-08T04:15:55.494Z,9.30
2024-02-08T04:18:47.553Z,13.40
2024-02-08T04:21:38.725Z,17.90
2024-02-08T04:24:29.997Z,18.90
2024-02-08T04:27:20.621Z,17.80
2024-02-08T04:30:11.337Z,16.60
2024-02-08T04:33:02.582Z,18.00
2024-02-08T04:35:53.399Z,21.00
2024-02-08T04:38:44.071Z,17.40
2024-02-08T04:41:35.426Z,14.90
2024-02-08T04:44:26.672Z,13.80
2024-02-08T04:47:17.567Z,12.20
2024-02-08T04:50:05.022Z,13.40
2024-02-08T04:55:28.259Z,12.20
2024-02-08T04:58:27.731Z,12.90
2024-02-08T05:00:55.449Z,13.00
2024-02-08T05:03:29.409Z,12.00
2024-02-08T05:06:05.968Z,14.00
2024-02-08T05:08:39.694Z,12.10
2024-02-08T05:11:16.122Z,10.80
2024-02-08T05:13:52.023Z,10.60
2024-02-08T05:16:28.380Z,10.60
2024-02-08T05:19:02.186Z,10.30
2024-02-08T05:21:41.280Z,11.40
2024-02-08T05:24:15.494Z,9.70
2024-02-08T05:26:48.968Z,10.40
2024-02-08T05:29:22.242Z,11.40
2024-02-08T05:31:56.008Z,10.70
2024-02-08T05:34:29.983Z,10.60
2024-02-08T05:37:04.833Z,11.20
2024-02-08T05:39:38.732Z,11.80
2024-02-08T05:42:15.255Z,12.00
2024-02-08T05:44:49.600Z,12.50
2024-02-08T05:47:28.016Z,18.00
2024-02-08T05:50:08.614Z,12.60
2024-02-08T05:52:44.178Z,13.20
2024-02-08T05:55:21.340Z,11.60
2024-02-08T05:58:00.256Z,13.20
2024-02-08T06:00:37.788Z,11.80
2024-02-08T06:03:11.114Z,14.30
2024-02-08T06:05:51.029Z,17.80
2024-02-08T06:08:28.175Z,15.30
2024-02-08T06:13:39.754Z,14.20
2024-02-08T06:16:28.341Z,10.60
2024-02-08T06:19:05.807Z,13.20
2024-02-08T06:21:43.073Z,10.80
2024-02-08T06:24:34.065Z,12.20
2024-02-08T06:27:15.051Z,11.70
2024-02-08T06:29:50.385Z,10.70
2024-02-08T06:32:35.868Z,10.00
2024-02-08T06:35:11.108Z,10.10
2024-02-08T06:37:46.115Z,10.80
2024-02-08T06:40:23.847Z,9.70
2024-02-08T06:43:14.612Z,10.70
2024-02-08T06:46:11.571Z,11.10
2024-02-08T06:49:11.804Z,11.70
2024-02-08T06:52:02.555Z,10.40
2024-02-08T06:54:53.297Z,9.40
2024-02-08T06:57:59.122Z,10.10
2024-02-08T07:00:49.840Z,7.80
2024-02-08T07:03:43.443Z,7.60
2024-02-08T07:06:42.940Z,6.90
2024-02-08T07:09:41.040Z,6.20
2024-02-08T07:12:46.479Z,6.60
2024-02-08T07:15:37.037Z,5.20
2024-02-08T07:18:28.327Z,5.50
2024-02-08T07:21:24.421Z,5.10
2024-02-08T07:24:15.409Z,4.40
2024-02-08T07:27:09.046Z,3.90
2024-02-08T07:30:03.580Z,4.00
2024-02-08T07:32:54.653Z,3.90
2024-02-08T07:35:45.212Z,4.10
2024-02-08T07:38:36.171Z,4.00
2024-02-08T07:41:09.873Z,4.50
2024-02-08T07:43:56.211Z,3.70
2024-02-08T07:46:32.407Z,4.40
2024-02-08T07:49:07.529Z,4.10
2024-02-08T07:51:45.027Z,4.10
2024-02-08T07:54:22.147Z,5.00
2024-02-08T07:57:01.253Z,4.00
2024-02-08T07:59:36.658Z,3.80
2024-02-08T08:02:13.994Z,3.60
2024-02-08T08:04:54.883Z,4.40
2024-02-08T08:07:28.736Z,4.80
2024-02-08T08:10:10.687Z,6.60
2024-02-08T08:12:48.586Z,6.80
2024-02-08T08:15:23.849Z,6.80
2024-02-08T08:18:04.833Z,8.00
2024-02-08T08:20:58.958Z,9.00
2024-02-08T08:23:32.742Z,8.00
2024-02-08T08:26:32.064Z,7.10
2024-02-08T08:29:06.241Z,8.00
2024-02-08T08:31:48.001Z,5.60
2024-02-08T08:34:39.657Z,7.20
2024-02-08T08:37:26.842Z,6.60
2024-02-08T08:40:25.696Z,7.90
2024-02-08T08:42:59.516Z,7.70
2024-02-08T08:45:33.587Z,9.50
2024-02-08T08:48:07.906Z,9.40
2024-02-08T08:50:45.354Z,10.80
2024-02-08T08:53:21.298Z,10.90
2024-02-08T08:55:55.697Z,11.50
2024-02-08T08:58:40.940Z,10.30
2024-02-08T09:01:20.432Z,9.10
2024-02-08T09:04:27.854Z,10.20
2024-02-08T09:07:10.582Z,11.80
2024-02-08T09:09:59.176Z,9.70
2024-02-08T09:12:38.650Z,11.40
2024-02-08T09:15:28.661Z,10.20
2024-02-08T09:18:10.776Z,9.10
2024-02-08T09:20:44.884Z,10.00
2024-02-08T09:23:19.915Z,10.60
2024-02-08T09:25:55.329Z,9.80
2024-02-08T09:28:37.540Z,9.00
2024-02-08T09:31:17.912Z,7.80
2024-02-08T09:34:03.103Z,7.30
2024-02-08T09:36:36.837Z,6.80
2024-02-08T09:39:16.665Z,7.20
2024-02-08T09:41:50.049Z,7.30
2024-02-08T09:44:27.614Z,6.60
2024-02-08T09:47:06.139Z,7.70
2024-02-08T09:49:40.503Z,7.20
2024-02-08T09:52:25.802Z,6.60
2024-02-08T09:55:07.988Z,5.80
2024-02-08T09:57:47.844Z,5.80
2024-02-08T10:00:56.477Z,6.30
2024-02-08T10:03:34.897Z,5.80
2024-02-08T10:06:25.950Z,7.70
2024-02-08T10:09:10.401Z,5.50
2024-02-08T10:11:46.768Z,7.70
2024-02-08T10:14:26.929Z,7.10
2024-02-08T10:17:03.339Z,5.50
2024-02-08T10:19:49.804Z,6.70
2024-02-08T10:22:28.807Z,6.90
2024-02-08T10:25:19.841Z,6.40
2024-02-08T10:28:04.490Z,6.90
2024-02-08T10:30:42.774Z,5.50
2024-02-08T10:33:20.277Z,5.60
2024-02-08T10:35:55.055Z,4.80
2024-02-08T10:38:34.138Z,5.70
2024-02-08T10:41:13.450Z,3.90
2024-02-08T10:43:58.932Z,5.60
2024-02-08T10:46:35.989Z,6.50
2024-02-08T10:49:10.876Z,4.30
2024-02-08T10:51:45.230Z,4.80
2024-02-08T10:54:24.878Z,4.90
2024-02-08T10:57:10.287Z,4.70
2024-02-08T10:59:49.564Z,3.00
2024-02-08T11:02:37.263Z,5.20
2024-02-08T11:05:23.347Z,3.60
2024-02-08T11:07:57.904Z,4.80
2024-02-08T11:10:34.176Z,3.50
2024-02-08T11:15:51.143Z,2.80
2024-02-08T11:18:37.242Z,3.30
2024-02-08T11:21:14.904Z,4.30
2024-02-08T11:23:52.827Z,3.90
2024-02-08T11:26:29.053Z,3.50
2024-02-08T11:29:20.513Z,3.70
2024-02-08T11:31:57.105Z,3.80
2024-02-08T11:34:46.850Z,5.40
2024-02-08T11:37:21.433Z,3.80
2024-02-08T11:40:11.103Z,4.00
2024-02-08T11:42:46.130Z,3.90
2024-02-08T11:45:23.968Z,4.20
2024-02-08T11:47:59.940Z,3.90
2024-02-08T11:50:38.080Z,3.50
2024-02-08T11:53:11.860Z,4.90
2024-02-08T11:55:47.077Z,4.90
2024-02-08T11:58:23.094Z,4.60
2024-02-08T12:00:58.065Z,4.60
2024-02-08T12:03:32.291Z,4.60
2024-02-08T12:06:07.028Z,4.60
2024-02-08T12:08:46.843Z,4.40
2024-02-08T12:11:23.973Z,5.20
2024-02-08T12:14:04.688Z,3.80
2024-02-08T12:16:48.605Z,4.90
2024-02-08T12:19:23.379Z,4.70
2024-02-08T12:22:05.812Z,5.30
2024-02-08T12:24:41.971Z,5.60
2024-02-08T12:27:27.028Z,5.90
2024-02-08T12:30:02.940Z,5.40
2024-02-08T12:32:36.823Z,5.50
2024-02-08T12:35:16.108Z,6.70
2024-02-08T12:37:50.144Z,4.60
2024-02-08T12:40:23.877Z,4.80
2024-02-08T12:42:57.519Z,5.70
2024-02-08T12:45:31.281Z,5.50
2024-02-08T12:48:06.284Z,5.80
2024-02-08T12:50:42.533Z,5.20
2024-02-08T12:53:20.268Z,5.50
2024-02-08T12:55:53.997Z,5.30
2024-02-08T12:58:27.525Z,5.70
2024-02-08T13:01:06.532Z,5.20
2024-02-08T13:03:41.003Z,5.70
2024-02-08T13:06:17.576Z,5.40
2024-02-08T13:08:51.102Z,5.80
2024-02-08T13:11:25.675Z,5.20
2024-02-08T13:14:09.110Z,5.80
2024-02-08T13:16:42.521Z,5.40
2024-02-08T13:19:16.260Z,6.00
2024-02-08T13:21:49.694Z,7.00
2024-02-08T13:24:23.283Z,6.40
2024-02-08T13:26:56.689Z,6.60
2024-02-08T13:29:30.210Z,6.30
2024-02-08T13:32:03.720Z,7.10
2024-02-08T13:34:38.051Z,7.10
2024-02-08T13:37:19.836Z,9.00
2024-02-08T13:40:01.992Z,6.80
2024-02-08T13:42:51.093Z,7.00
2024-02-08T13:45:33.630Z,7.20
2024-02-08T13:48:14.772Z,7.00
2024-02-08T13:50:49.380Z,6.90
2024-02-08T13:53:22.824Z,7.00
2024-02-08T13:55:56.863Z,9.70
2024-02-08T13:58:37.397Z,7.10
2024-02-08T14:01:13.264Z,7.40
2024-02-08T14:03:47.140Z,7.70
2024-02-08T14:06:27.139Z,7.80
2024-02-08T14:09:20.699Z,7.50
2024-02-08T14:11:57.461Z,6.60
2024-02-08T14:17:22.244Z,6.60
2024-02-08T14:19:57.332Z,7.80
2024-02-08T14:22:40.518Z,7.60
2024-02-08T14:25:25.494Z,8.70
2024-02-08T14:27:59.581Z,8.60
2024-02-08T14:30:35.773Z,10.10
2024-02-08T14:33:09.330Z,9.00
2024-02-08T14:35:43.071Z,9.60
2024-02-08T14:38:17.276Z,10.00
2024-02-08T14:40:52.946Z,10.40
2024-02-08T14:43:33.606Z,11.30
2024-02-08T14:46:07.880Z,12.00
2024-02-08T14:48:41.238Z,10.80
2024-02-08T14:51:28.588Z,11.90
2024-02-08T14:56:37.103Z,10.00
2024-02-08T14:59:15.163Z,11.60
2024-02-08T15:01:54.600Z,10.80
2024-02-08T15:04:32.553Z,12.90
2024-02-08T15:07:11.633Z,13.40
2024-02-08T15:09:50.880Z,13.20
2024-02-08T15:12:34.397Z,13.10
2024-02-08T15:15:20.481Z,11.20
2024-02-08T15:17:54.263Z,11.90
2024-02-08T15:20:45.373Z,13.90
2024-02-08T15:23:32.277Z,15.00
2024-02-08T15:26:15.084Z,13.80
2024-02-08T15:28:57.502Z,16.90
2024-02-08T15:31:48.006Z,16.00
2024-02-08T15:34:29.519Z,15.50
2024-02-08T15:37:16.644Z,16.30
2024-02-08T15:40:11.379Z,15.60
2024-02-08T15:42:45.912Z,15.90
2024-02-08T15:45:23.329Z,18.40
2024-02-08T15:48:12.730Z,18.60
2024-02-08T15:50:48.151Z,16.30
2024-02-08T15:53:25.290Z,17.40
2024-02-08T15:55:59.167Z,21.90
2024-02-08T15:58:36.229Z,21.10
2024-02-08T16:03:58.184Z,18.00
2024-02-08T16:06:44.866Z,14.60
2024-02-08T16:09:35.145Z,19.00
2024-02-08T16:12:26.471Z,16.10
2024-02-08T16:15:09.428Z,15.80
2024-02-08T16:17:59.902Z,16.90
2024-02-08T16:20:40.323Z,16.70
2024-02-08T16:23:16.522Z,16.40
2024-02-08T16:26:03.870Z,16.30
2024-02-08T16:28:47.303Z,17.20
2024-02-08T16:31:30.809Z,15.80
2024-02-08T16:34:24.728Z,17.40
2024-02-08T16:37:05.835Z,16.90
2024-02-08T16:39:57.727Z,17.60
2024-02-08T16:42:37.516Z,17.50
2024-02-08T16:45:20.480Z,18.80
2024-02-08T16:48:10.155Z,18.10
2024-02-08T16:50:48.931Z,17.30
2024-02-08T16:53:24.046Z,17.70
2024-02-08T16:56:05.895Z,16.70
2024-02-08T16:58:51.920Z,16.10
2024-02-08T17:01:30.904Z,17.20
2024-02-08T17:04:30.813Z,16.20
2024-02-08T17:09:47.715Z,19.20
2024-02-08T17:12:29.669Z,17.80
2024-02-08T17:15:22.419Z,18.20
2024-02-08T17:18:03.233Z,19.90
2024-02-08T17:20:44.406Z,18.60
2024-02-08T17:23:21.320Z,17.80
2024-02-08T17:26:08.004Z,20.00
2024-02-08T17:28:51.588Z,21.70
2024-02-08T17:31:30.405Z,18.50
2024-02-08T17:34:11.629Z,19.40
2024-02-08T17:36:48.902Z,19.00
2024-02-08T17:42:12.496Z,17.70
2024-02-08T17:44:56.509Z,18.30
2024-02-08T17:47:31.606Z,18.40
2024-02-08T17:50:06.686Z,18.10
2024-02-08T17:52:40.235Z,18.20
2024-02-08T17:55:16.999Z,17.60
2024-02-08T17:57:57.876Z,17.40
2024-02-08T18:00:31.493Z,17.50
2024-02-08T18:03:05.068Z,14.90
2024-02-08T18:05:40.091Z,17.20
2024-02-08T18:08:15.400Z,15.50
2024-02-08T18:10:52.370Z,15.80
2024-02-08T18:16:11.770Z,16.10
2024-02-08T18:18:46.486Z,15.10
2024-02-08T18:21:20.926Z,15.80
2024-02-08T18:23:55.122Z,17.40
2024-02-08T18:26:29.434Z,16.10
2024-02-08T18:29:05.111Z,20.30
2024-02-08T18:31:39.285Z,18.30
2024-02-08T18:34:14.075Z,19.10
2024-02-08T18:36:48.399Z,16.10
2024-02-08T18:39:28.754Z,15.50
2024-02-08T18:42:08.500Z,15.70
2024-02-08T18:44:44.491Z,15.50
2024-02-08T18:47:19.883Z,15.40
2024-02-08T18:49:56.645Z,15.20
2024-02-08T18:52:32.439Z,15.70
2024-02-08T18:55:11.471Z,16.60
2024-02-08T18:57:46.300Z,16.60
2024-02-08T19:00:24.368Z,19.20
2024-02-08T19:02:57.983Z,19.10
2024-02-08T19:05:32.896Z,16.50
2024-02-08T19:08:07.878Z,15.70
2024-02-08T19:10:45.235Z,15.20
2024-02-08T19:13:27.312Z,15.20
2024-02-08T19:16:03.551Z,14.90
2024-02-08T19:18:46.050Z,16.80
2024-02-08T19:21:29.497Z,15.90
2024-02-08T19:24:04.315Z,15.10
2024-02-08T19:26:39.196Z,15.80
2024-02-08T19:29:19.281Z,15.60
2024-02-08T19:31:53.569Z,15.20
2024-02-08T19:34:30.972Z,15.30
2024-02-08T19:37:05.271Z,16.50
2024-02-08T19:39:43.008Z,14.50
2024-02-08T19:42:23.790Z,14.60
2024-02-08T19:45:01.856Z,15.60
2024-02-08T19:47:39.545Z,15.10
2024-02-08T19:50:18.893Z,14.20
2024-02-08T19:52:54.011Z,15.80
2024-02-08T19:55:35.352Z,14.60
2024-02-08T19:58:09.746Z,16.20
2024-02-08T20:00:47.533Z,17.40
2024-02-08T20:03:28.548Z,16.90
2024-02-08T20:06:03.097Z,15.80
2024-02-08T20:08:39.906Z,16.10
2024-02-08T20:11:14.255Z,15.80
2024-02-08T20:13:48.110Z,15.90
2024-02-08T20:16:28.745Z,16.20
2024-02-08T20:19:07.194Z,15.40
2024-02-08T20:21:41.836Z,15.20
2024-02-08T20:24:15.139Z,14.80
2024-02-08T20:26:49.835Z,16.10
2024-02-08T20:29:24.888Z,15.60
2024-02-08T20:31:58.258Z,15.40
2024-02-08T20:34:34.970Z,15.60
2024-02-08T20:37:15.386Z,16.40
2024-02-08T20:39:54.108Z,14.20
2024-02-08T20:42:30.391Z,16.60
2024-02-08T20:45:12.296Z,15.70
2024-02-08T20:47:46.222Z,16.10
2024-02-08T20:50:22.423Z,15.60
2024-02-08T20:52:56.645Z,15.00
2024-02-08T20:55:36.800Z,15.80
2024-02-08T20:58:14.181Z,14.70
2024-02-08T21:00:49.740Z,14.00
2024-02-08T21:03:28.274Z,15.60
2024-02-08T21:06:04.168Z,15.90
2024-02-08T21:08:41.879Z,16.30
2024-02-08T21:11:16.116Z,14.70
2024-02-08T21:13:50.528Z,16.30
2024-02-08T21:16:24.853Z,16.50
2024-02-08T21:18:58.417Z,16.80
2024-02-08T21:21:33.498Z,14.80
2024-02-08T21:24:07.479Z,14.90
2024-02-08T21:26:41.305Z,15.40
2024-02-08T21:29:15.984Z,14.90
2024-02-08T21:31:49.468Z,15.40
2024-02-08T21:34:23.358Z,17.80
2024-02-08T21:36:56.848Z,17.30
2024-02-08T21:39:33.264Z,17.30
2024-02-08T21:42:08.425Z,15.60
2024-02-08T21:44:41.937Z,17.30
2024-02-08T21:47:17.780Z,16.90
2024-02-08T21:49:51.210Z,16.40
2024-02-08T21:52:25.349Z,18.80
2024-02-08T21:54:58.773Z,17.90
2024-02-08T21:57:33.131Z,17.60
2024-02-08T22:00:13.064Z,15.50
2024-02-08T22:02:47.613Z,16.70
2024-02-08T22:05:21.843Z,17.50
2024-02-08T22:07:55.624Z,16.60
2024-02-08T22:10:30.774Z,17.20
2024-02-08T22:13:07.593Z,18.70
2024-02-08T22:15:41.116Z,16.50
2024-02-08T22:18:14.504Z,18.20
2024-02-08T22:20:50.317Z,18.50
2024-02-08T22:23:23.946Z,19.70
2024-02-08T22:25:57.145Z,19.90
2024-02-08T22:28:31.343Z,20.10
2024-02-08T22:31:05.917Z,16.60
2024-02-08T22:33:40.176Z,16.00
2024-02-08T22:36:17.702Z,18.00
2024-02-08T22:38:51.332Z,17.90
2024-02-08T22:41:24.674Z,17.60
2024-02-08T22:44:00.736Z,16.10
2024-02-08T22:46:34.057Z,18.30
2024-02-08T22:49:08.765Z,18.60
2024-02-08T22:51:45.288Z,18.40
2024-02-08T22:54:19.099Z,19.70
2024-02-08T22:56:52.984Z,20.70
2024-02-08T22:59:26.651Z,20.10
2024-02-08T23:02:00.122Z,18.90
2024-02-08T23:04:34.023Z,20.00
2024-02-08T23:07:09.344Z,20.40
2024-02-08T23:09:43.155Z,22.00
2024-02-08T23:12:17.950Z,20.70
2024-02-08T23:14:51.308Z,18.40
2024-02-08T23:17:24.846Z,18.30
2024-02-08T23:20:00.297Z,19.50
2024-02-08T23:22:34.109Z,17.70
2024-02-08T23:25:09.429Z,15.70
2024-02-08T23:27:49.464Z,15.50
2024-02-08T23:30:25.789Z,17.80
2024-02-08T23:33:00.266Z,15.10
2024-02-08T23:35:37.697Z,13.40
2024-02-08T23:38:11.194Z,12.80
2024-02-08T23:40:45.478Z,12.50
2024-02-08T23:43:18.796Z,14.60
2024-02-08T23:45:52.631Z,15.60
2024-02-08T23:48:27.707Z,14.70
2024-02-08T23:51:01.061Z,15.70
2024-02-08T23:53:34.358Z,15.50
2024-02-08T23:56:10.104Z,15.10
2024-02-08T23:58:43.898Z,17.60
